Tiempo atmosférico en la estación meteorológica de Miguelañez, Segovia (870 m.)



Fecha
DESCASC
Temp. máxima en grados centígrados (hora)
DESCASC
Temp. mínima en grados centígrados (hora)
DESCASC
Temp. media en grados centígrados
DESCASC
Racha de viento máxima en m/sg (hora)
DESCASC
Velocidad máxima media en intervalos de 10 minutos(hora)
DESCASC
Precipitaciones diarias en mm
DESCASC
Precipitaciones de 00:00 a 06:00 en mm
DESCASC
Precipitaciones de 06:00 a 12:00 en mm
DESCASC
Precipitaciones de 12:00 a 18:00 en mm
DESCASC
Precipitaciones de 18:00 a 24:00 en mm
DESCASC
09-08-2019 26.9 (12:20) 15.7 (00:00) 21.3 18.06 (18:20) 13.61 (18:10) 1 0 0 0 1
08-08-2019 31.7 (18:30) 18.2 (00:00) 25 15.83 (20:00) 10.56 (19:00) 0 0 0 0 0
31-07-2019 32 (18:10) 9.9 (00:00) 20.9 15.56 (18:20) 8.33 (20:00) 0 0 0 0 0
23-08-2019 32.4 (17:10) 16.3 (00:00) 24.4 14.17 (08:00) 10.28 (06:40) 0 0 0 0 0
29-07-2019 26.7 (17:20) 14.7 (00:00) 20.7 13.89 (16:00) 9.17 (17:40) 0 0 0 0 0
27-07-2019 23.6 (18:20) 14.3 (00:00) 19 13.33 (18:10) 8.61 (18:30) 0 0 0 0 0
26-07-2019 26.4 (17:50) 17.1 (00:00) 21.8 13.06 (18:40) 7.5 (17:00) 0 0 0 0 0
18-08-2019 29.3 (16:30) 17.3 (00:00) 23.3 12.5 (16:20) 8.89 (17:50) 0 0 0 0 0
01-08-2019 30.2 (17:10) 15.8 (00:00) 23 11.94 (15:30) 6.94 (19:30) 0 0 0 0 0
06-08-2019 32.1 (17:10) 17.9 (00:00) 25 11.67 (16:40) 6.94 (17:40) 0 0 0 0 0
11-08-2019 23.3 (17:50) 13.3 (00:00) 18.3 11.39 (17:20) 7.5 (14:40) 1.2 1.2 0 0 0
16-08-2019 32.7 (17:40) 15 (00:00) 23.9 11.39 (18:20) 8.33 (18:20) 0 0 0 0 0
17-08-2019 33.7 (17:30) 17.6 (00:00) 25.7 10.83 (18:50) 7.5 (18:50) 0 0 0 0 0
04-08-2019 33 (17:10) 17.7 (00:00) 25.4 10.56 (17:00) 6.67 (18:30) 0 0 0 0 0
05-08-2019 33.1 (16:50) 17.3 (00:00) 25.2 10.28 (17:10) 6.94 (17:40) 0 0 0 0 0
24-08-2019 33.4 (17:40) 18.6 (00:00) 26 10 (05:40) 8.06 (05:30) 0 0 0 0 0
22-08-2019 30.5 (18:20) 12.5 (00:00) 21.5 10 (13:00) 5 (13:40) 0 0 0 0 0
13-08-2019 26.6 (17:20) 8.8 (00:00) 17.7 10 (17:00) 5.56 (17:00) 0 0 0 0 0
07-08-2019 25 (15:20) 18.8 (00:00) 21.9 10 (15:50) 7.22 (16:10) 0 0 0 0 0
03-08-2019 33.8 (17:10) 16.4 (00:00) 25.1 9.72 (16:10) 6.11 (17:20) 0 0 0 0 0
20-08-2019 27.5 (17:50) 12.2 (00:00) 19.8 9.72 (19:00) 6.39 (21:00) 0 0 0 0 0
12-08-2019 23.2 (18:30) 8.4 (00:00) 15.8 9.44 (18:40) 5.83 (23:20) 0 0 0 0 0
21-08-2019 29 (16:30) 12.5 (00:00) 20.8 9.44 (19:20) 6.11 (19:20) 0 0 0 0 0
15-08-2019 31.9 (16:30) 15.7 (00:00) 23.8 8.89 (01:30) 5.28 (04:20) 0 0 0 0 0
19-08-2019 24.2 (14:30) 14.8 (00:00) 19.5 8.89 (22:10) 6.11 (20:20) 0 0 0 0 0
02-08-2019 33.5 (18:00) 12.2 (00:00) 22.8 8.89 (16:10) 5.28 (20:20) 0 0 0 0 0
28-07-2019 27 (18:20) 8.7 (00:00) 17.8 8.89 (15:50) 5 (16:00) 0 0 0 0 0
10-08-2019 27.8 (17:40) 10.6 (00:00) 19.2 8.33 (17:30) 5.28 (21:30) 0 0 0 0 0
14-08-2019 30.2 (18:40) 10.3 (00:00) 20.3 7.78 (14:30) 5 (03:40) 0 0 0 0 0
30-07-2019 26.1 (19:00) 9.8 (00:00) 18 7.78 (14:40) 5.56 (21:10) 0 0 0 0 0

Gráficas

Temp. máximas Temp. mínimas Temp. medias Precipitaciones Rachas de viento máximas Velocidades máximas media en intervalos de 10 minutos

Datos horarios

Fecha y hora oficial Temperatura (ºC) Velocidad del viento (km/h) Dirección del viento Racha (km/h) Dirección de racha Precipitación (mm) Presión (hPa) Tendencia (hPa) Humedad (%)
2019-08-24 23:00:00 25.3 13 Este 19 Este 0 -- -- 29
2019-08-24 22:00:00 26.8 3 Norte 9 Noroeste 0 -- -- 27
2019-08-24 21:00:00 28.3 7 Noroeste 17 Oeste 0 -- -- 25
2019-08-24 20:00:00 30.8 14 Oeste 26 Oeste 0 -- -- 23
2019-08-24 19:00:00 31.8 12 Noroeste 31 Oeste 0 -- -- 23
2019-08-24 18:00:00 32.8 21 Noroeste 34 Sudoeste 0 -- -- 22
2019-08-24 17:00:00 33 9 Norte 28 Oeste 0 -- -- 22
2019-08-24 16:00:00 32.7 6 Sur 29 Oeste 0 -- -- 21
2019-08-24 15:00:00 31.7 9 Sudoeste 30 Noroeste 0 -- -- 22
2019-08-24 14:00:00 31.2 9 Sur 24 Sudoeste 0 -- -- 23
2019-08-24 13:00:00 30.9 8 Noroeste 17 Sudoeste 0 -- -- 22
2019-08-24 12:00:00 29.3 7 Oeste 16 Oeste 0 -- -- 26
2019-08-24 11:00:00 27.2 11 Sudoeste 19 Sudoeste 0 -- -- 28
2019-08-24 10:00:00 25.8 16 Sur 22 Sur 0 -- -- 30
2019-08-24 09:00:00 23.8 14 Sur 25 Sur 0 -- -- 31
2019-08-24 08:00:00 22.1 22 Sur 30 Sur 0 -- -- 33
2019-08-24 07:00:00 20.7 23 Sur 31 Sur 0 -- -- 35
2019-08-24 06:00:00 20.1 21 Sur 36 Sur 0 -- -- 38
2019-08-24 05:00:00 18.7 18 Sudeste 24 Sudeste 0 -- -- 40
2019-08-24 04:00:00 18.6 13 Sudeste 21 Sudeste 0 -- -- 39
2019-08-24 03:00:00 19.2 18 Sudeste 25 Sudeste 0 -- -- 38
2019-08-24 02:00:00 21.1 23 Sudeste 27 Sudeste 0 -- -- 35
2019-08-24 01:00:00 21.8 14 Sudeste 18 Este 0 -- -- 31
2019-08-24 00:00:00 23.2 9 Sudeste 22 Sudeste 0 -- -- 27
2019-08-23 23:00:00 24.4 8 Nordeste 12 Nordeste 0 -- -- 26
2019-08-23 22:00:00 26.1 5 Norte 14 Noroeste 0 -- -- 24
2019-08-23 21:00:00 27.7 11 Noroeste 26 Oeste 0 -- -- 23
2019-08-23 20:00:00 30.6 17 Oeste 26 Oeste 0 -- -- 21
2019-08-23 19:00:00 31.9 12 Sudoeste 22 Oeste 0 -- -- 20
2019-08-23 18:00:00 31.6 18 Noroeste 26 Oeste 0 -- -- 20
2019-08-23 17:00:00 32.2 11 Oeste 24 Sudeste 0 -- -- 21
2019-08-23 16:00:00 31.6 9 Sudoeste 24 Sur 0 -- -- 22
2019-08-23 15:00:00 31.1 8 Sur 26 Sudoeste 0 -- -- 22
2019-08-23 14:00:00 30.7 4 Norte 29 Sur 0 -- -- 22
2019-08-23 13:00:00 29.6 13 Sudoeste 27 Sudoeste 0 -- -- 23
2019-08-23 12:00:00 28.9 15 Sur 30 Sudeste 0 -- -- 27
2019-08-23 11:00:00 27.3 19 Sur 25 Sur 0 -- -- 31
2019-08-23 10:00:00 24.9 15 Sur 42 Sudeste 0 -- -- 36
2019-08-23 09:00:00 22.3 33 Sudeste 46 Sudeste 0 -- -- 42
2019-08-23 08:00:00 20.6 34 Sudeste 51 Sur 0 -- -- 49
2019-08-23 07:00:00 20.8 36 Sur 46 Sudeste 0 -- -- 47
2019-08-23 06:00:00 20 28 Sur 34 Sur 0 -- -- 35
2019-08-23 05:00:00 19.6 25 Sudeste 30 Sudeste 0 -- -- 33
2019-08-23 04:00:00 17.8 12 Sudeste 26 Sudeste 0 -- -- 35
2019-08-23 03:00:00 16.9 22 Sudeste 27 Sudeste 0 -- -- 33
2019-08-23 02:00:00 18.1 10 Sudeste 18 Sudeste 0 -- -- 29
2019-08-23 01:00:00 18.9 13 Sudeste 20 Sudeste 0 -- -- 27
2019-08-23 00:00:00 20.5 13 Nordeste 17 Este 0 -- -- 27
2019-08-22 23:00:00 22.5 11 Nordeste 15 Norte 0 -- -- 18
2019-08-22 22:00:00 24.4 5 Nordeste 12 Norte 0 -- -- 16
2019-08-22 21:00:00 26.6 10 Norte 18 Noroeste 0 -- -- 15
2019-08-22 20:00:00 29.6 13 Norte 19 Noroeste 0 -- -- 13
2019-08-22 19:00:00 30.2 5 Norte 20 Noroeste 0 -- -- 14
2019-08-22 18:00:00 30.4 8 Norte 24 Norte 0 -- -- 13
2019-08-22 17:00:00 29.9 8 Norte 27 Noroeste 0 -- -- 13
2019-08-22 16:00:00 29.2 11 Norte 24 Norte 0 -- -- 16
2019-08-22 15:00:00 28.8 11 Nordeste 27 Norte 0 -- -- 22
2019-08-22 14:00:00 27.6 10 Norte 32 Noroeste 0 -- -- 24
2019-08-22 13:00:00 26.6 14 Norte 36 Norte 0 -- -- 31
2019-08-22 12:00:00 25.2 6 Nordeste 15 Nordeste 0 -- -- 44
2019-08-22 11:00:00 22.9 7 Norte 12 Norte 0 -- -- 51
2019-08-22 10:00:00 18.2 4 Norte 6 Norte 0 -- -- 59
2019-08-22 09:00:00 14.9 -- -- -- -- 0 -- -- 69
2019-08-22 08:00:00 12.6 3 Norte 14 Sudeste 0 -- -- 73
2019-08-22 07:00:00 14.1 12 Sudeste 17 Sudeste 0 -- -- 71
2019-08-22 06:00:00 13.8 12 Sudeste 14 Sudeste 0 -- -- 70
2019-08-22 05:00:00 15.2 3 Este 8 Nordeste 0 -- -- 68
2019-08-22 04:00:00 16.3 0 Calma 9 Nordeste 0 -- -- 69
2019-08-22 03:00:00 18.1 5 Norte 12 Sur 0 -- -- 61
2019-08-22 02:00:00 19.1 6 Sudoeste 15 Sur 0 -- -- 62
2019-08-22 01:00:00 18.5 3 Este 13 Este 0 -- -- 47
2019-08-22 00:00:00 20.7 15 Este 27 Nordeste 0 -- -- 43
2019-08-21 23:00:00 21.9 15 Nordeste 24 Nordeste 0 -- -- 40
2019-08-21 22:00:00 23.9 7 Oeste 18 Norte 0 -- -- 44
2019-08-21 21:00:00 25.1 8 Oeste 17 Oeste 0 -- -- 42
2019-08-21 20:00:00 26.2 16 Sudoeste 34 Oeste 0 -- -- 41
2019-08-21 19:00:00 27.8 18 Noroeste 26 Norte 0 -- -- 32
2019-08-21 18:00:00 28.2 6 Noroeste 16 Noroeste 0 -- -- 32
2019-08-21 17:00:00 27.8 7 Noroeste 16 Norte 0 -- -- 33
2019-08-21 16:00:00 28.3 6 Nordeste 17 Nordeste 0 -- -- 34
2019-08-21 15:00:00 27.9 11 Noroeste 21 Noroeste 0 -- -- 37
2019-08-21 14:00:00 27.3 8 Noroeste 17 Noroeste 0 -- -- 40
2019-08-21 13:00:00 25.1 6 Norte 15 Norte 0 -- -- 47
2019-08-21 12:00:00 23.9 5 Norte 12 Norte 0 -- -- 49
2019-08-21 11:00:00 21.1 5 Norte 9 Norte 0 -- -- 55
2019-08-21 10:00:00 18 3 Norte 6 Norte 0 -- -- 61
2019-08-21 09:00:00 15 4 Sudeste 5 Sudeste 0 -- -- 69
2019-08-21 08:00:00 13.1 3 Sudeste 6 Sudeste 0 -- -- 73
2019-08-21 07:00:00 13.2 0 Calma 4 Oeste 0 -- -- 72
2019-08-21 06:00:00 13.4 0 Calma 6 Este 0 -- -- 71
2019-08-21 05:00:00 13.5 0 Calma 10 Sudeste 0 -- -- 71
2019-08-21 04:00:00 14 4 Sudeste 9 Sudoeste 0 -- -- 68
2019-08-21 03:00:00 15.1 6 Sudoeste 10 Sudoeste 0 -- -- 66
2019-08-21 02:00:00 15.3 9 Sudoeste 12 Sudoeste 0 -- -- 66
2019-08-21 01:00:00 15.7 4 Oeste 6 Oeste 0 -- -- 64
2019-08-21 00:00:00 16.5 3 Noroeste 17 Norte 0 -- -- 61
2019-08-20 23:00:00 18.4 14 Norte 24 Nordeste 0 -- -- 55
2019-08-20 22:00:00 20.3 19 Norte 32 Norte 0 -- -- 50
2019-08-20 21:00:00 22.9 23 Norte 32 Norte 0 -- -- 44
2019-08-20 20:00:00 25.7 21 Norte 33 Norte 0 -- -- 37
2019-08-20 19:00:00 27.2 11 Noroeste 35 Nordeste 0 -- -- 33
2019-08-20 18:00:00 27 9 Norte 22 Norte 0 -- -- 32
2019-08-20 17:00:00 27 10 Noroeste 24 Noroeste 0 -- -- 33
2019-08-20 16:00:00 25.8 7 Norte 24 Nordeste 0 -- -- 37
2019-08-20 15:00:00 25.2 9 Noroeste 25 Norte 0 -- -- 41
2019-08-20 14:00:00 23.5 8 Norte 30 Norte 0 -- -- 46
2019-08-20 13:00:00 21.8 7 Noroeste 15 Noroeste 0 -- -- 53
2019-08-20 12:00:00 20.8 4 Este 19 Nordeste 0 -- -- 58
2019-08-20 11:00:00 18.4 8 Nordeste 16 Nordeste 0 -- -- 64
2019-08-20 10:00:00 15.7 9 Norte 18 Norte 0 -- -- 74
2019-08-20 09:00:00 14.6 11 Nordeste 17 Nordeste 0 -- -- 78
2019-08-20 08:00:00 12.2 5 Norte 13 Norte 0 -- -- 86
2019-08-20 07:00:00 12.8 5 Norte 8 Noroeste 0 -- -- 82
2019-08-20 06:00:00 13.4 5 Noroeste 15 Oeste 0 -- -- 81
2019-08-20 05:00:00 14.1 3 Sudoeste 11 Norte 0 -- -- 78
2019-08-20 04:00:00 14.6 4 Norte 22 Norte 0 -- -- 77
2019-08-20 03:00:00 14.8 17 Norte 23 Norte 0 -- -- 75
2019-08-20 02:00:00 15.6 11 Noroeste 22 Nordeste 0 -- -- 71
2019-08-20 01:00:00 16.3 10 Norte 16 Norte 0 -- -- 69
2019-08-20 00:00:00 17 13 Norte 20 Norte 0 -- -- 67
2019-08-19 23:00:00 17.9 15 Norte 32 Norte 0 -- -- 64
2019-08-19 22:00:00 19.5 15 Norte 26 Norte 0 -- -- 58
2019-08-19 21:00:00 20.6 13 Norte 28 Norte 0 -- -- 56
2019-08-19 20:00:00 23.6 12 Oeste 16 Oeste 0 -- -- 47
2019-08-19 19:00:00 23.4 8 Oeste 16 Oeste 0 -- -- 44
2019-08-19 18:00:00 23.9 11 Oeste 16 Oeste 0 -- -- 45
2019-08-19 17:00:00 23.7 7 Noroeste 21 Noroeste 0 -- -- 48
2019-08-19 16:00:00 23.5 13 Noroeste 21 Noroeste 0 -- -- 49
2019-08-19 15:00:00 24 8 Noroeste 23 Noroeste 0 -- -- 49
2019-08-19 14:00:00 23.5 11 Noroeste 22 Noroeste 0 -- -- 51
2019-08-19 13:00:00 23.4 12 Noroeste 20 Noroeste 0 -- -- 51
2019-08-19 12:00:00 20.4 9 Noroeste 17 Noroeste 0 -- -- 60
2019-08-19 11:00:00 18.7 5 Noroeste 12 Noroeste 0 -- -- 66
2019-08-19 10:00:00 17.1 3 Noroeste 9 Norte 0 -- -- 72
2019-08-19 09:00:00 15.5 5 Norte 10 Norte 0 -- -- 78
2019-08-19 08:00:00 14.9 4 Noroeste 6 Noroeste 0 -- -- 81
2019-08-19 07:00:00 15 3 Norte 8 Norte 0 -- -- 80
2019-08-19 06:00:00 15.4 5 Norte 7 Noroeste 0 -- -- 79
2019-08-19 05:00:00 15.9 4 Noroeste 8 Norte 0 -- -- 77
2019-08-19 04:00:00 16.8 5 Norte 12 Norte 0 -- -- 75
2019-08-19 03:00:00 17.5 8 Norte 17 Noroeste 0 -- -- 72
2019-08-19 02:00:00 19.3 12 Oeste 20 Noroeste 0 -- -- 62
2019-08-19 01:00:00 21.1 9 Sudoeste 16 Oeste 0 -- -- 59
2019-08-19 00:00:00 21.9 7 Oeste 9 Oeste 0 -- -- 56
2019-08-18 23:00:00 22.1 5 Noroeste 14 Noroeste 0 -- -- 57
2019-08-18 22:00:00 23.8 12 Noroeste 22 Noroeste 0 -- -- 53
2019-08-18 21:00:00 25.3 19 Noroeste 37 Oeste 0 -- -- 50
2019-08-18 20:00:00 27.1 23 Oeste 40 Oeste 0 -- -- 38
2019-08-18 19:00:00 28.3 23 Oeste 40 Oeste 0 -- -- 32
2019-08-18 18:00:00 28.3 26 Oeste 42 Oeste 0 -- -- 30
2019-08-18 17:00:00 29.3 25 Oeste 45 Oeste 0 -- -- 27
2019-08-18 16:00:00 28.3 24 Oeste 39 Oeste 0 -- -- 27
2019-08-18 15:00:00 26.7 18 Oeste 35 Oeste 0 -- -- 31
2019-08-18 14:00:00 25.9 22 Oeste 32 Noroeste 0 -- -- 38
2019-08-18 13:00:00 25.2 17 Oeste 25 Oeste 0 -- -- 40
2019-08-18 12:00:00 24 6 Sudoeste 21 Sur 0 -- -- 47
2019-08-18 11:00:00 22.1 9 Sudoeste 17 Sudoeste 0 -- -- 51
2019-08-18 10:00:00 19.8 12 Sudoeste 21 Sudoeste 0 -- -- 58
2019-08-18 09:00:00 18 13 Sudoeste 19 Sudoeste 0 -- -- 61
2019-08-18 08:00:00 17.5 10 Sudoeste 17 Sudoeste 0 -- -- 61
2019-08-18 07:00:00 18.6 11 Sudoeste 21 Sur 0 -- -- 56
2019-08-18 06:00:00 19.6 14 Sur 25 Sudoeste 0 -- -- 50
2019-08-18 05:00:00 19.2 20 Sudoeste 25 Sudoeste 0 -- -- 48
2019-08-18 04:00:00 20 15 Sudoeste 23 Sudoeste 0 -- -- 42
2019-08-18 03:00:00 22 18 Sudoeste 23 Sudoeste 0 -- -- 34
2019-08-18 02:00:00 20.1 13 Sudeste 16 Sudeste 0 -- -- 37
2019-08-18 01:00:00 21.2 8 Sudeste 14 Sudeste 0 -- -- 34
2019-08-18 00:00:00 22.5 5 Sudeste 11 Sudeste 0 -- -- 32
2019-08-17 23:00:00 26.1 9 Oeste 15 Oeste 0 -- -- 27
2019-08-17 22:00:00 27.6 10 Oeste 16 Oeste 0 -- -- 26
2019-08-17 21:00:00 30.1 14 Oeste 24 Oeste 0 -- -- 24
2019-08-17 20:00:00 32.4 19 Oeste 37 Oeste 0 -- -- 22
2019-08-17 19:00:00 32.9 22 Oeste 39 Oeste 0 -- -- 23
2019-08-17 18:00:00 33.4 22 Oeste 37 Oeste 0 -- -- 23
2019-08-17 17:00:00 33.1 22 Oeste 35 Oeste 0 -- -- 25
2019-08-17 16:00:00 33 16 Oeste 31 Oeste 0 -- -- 24
2019-08-17 15:00:00 31.9 17 Oeste 33 Oeste 0 -- -- 27
2019-08-17 14:00:00 31.4 13 Oeste 27 Oeste 0 -- -- 27
2019-08-17 13:00:00 29.7 6 Sur 18 Oeste 0 -- -- 30
2019-08-17 12:00:00 27.7 5 Noroeste 12 Noroeste 0 -- -- 35
2019-08-17 11:00:00 24.3 2 Sudoeste 10 Noroeste 0 -- -- 42
2019-08-17 10:00:00 22.5 3 Sudoeste 14 Sudeste 0 -- -- 46
2019-08-17 09:00:00 20.4 2 Sur 8 Sudoeste 0 -- -- 52
2019-08-17 08:00:00 18.3 6 Sudoeste 12 Sudoeste 0 -- -- 54
2019-08-17 07:00:00 18.3 9 Sudoeste 22 Sudoeste 0 -- -- 51
2019-08-17 06:00:00 19.4 18 Sudoeste 25 Sudoeste 0 -- -- 48
2019-08-17 05:00:00 20 19 Sudoeste 24 Sudoeste 0 -- -- 44
2019-08-17 04:00:00 20.5 16 Sur 22 Sur 0 -- -- 38
2019-08-17 03:00:00 21.5 13 Sudoeste 17 Sudoeste 0 -- -- 33
2019-08-17 02:00:00 23.5 13 Sudoeste 15 Sudoeste 0 -- -- 31
2019-08-17 01:00:00 23.8 8 Sudoeste 11 Sudoeste 0 -- -- 30
2019-08-17 00:00:00 23.6 6 Sudoeste 9 Sudoeste 0 -- -- 31
2019-08-16 23:00:00 23.8 2 Sudeste 6 Noroeste 0 -- -- 33
2019-08-16 22:00:00 27 4 Oeste 16 Oeste 0 -- -- 29
2019-08-16 21:00:00 29.5 15 Oeste 32 Oeste 0 -- -- 27
2019-08-16 20:00:00 31.7 22 Oeste 32 Oeste 0 -- -- 24
2019-08-16 19:00:00 32.3 23 Oeste 41 Oeste 0 -- -- 23
2019-08-16 18:00:00 32.5 23 Oeste 39 Oeste 0 -- -- 27
2019-08-16 17:00:00 32.1 22 Oeste 36 Oeste 0 -- -- 28
2019-08-16 16:00:00 31.6 17 Oeste 35 Oeste 0 -- -- 28
2019-08-16 15:00:00 31 18 Oeste 35 Oeste 0 -- -- 30
2019-08-16 14:00:00 29.9 12 Sudoeste 29 Oeste 0 -- -- 32
2019-08-16 13:00:00 28.3 15 Noroeste 33 Oeste 0 -- -- 36
2019-08-16 12:00:00 26.6 9 Oeste 18 Sudoeste 0 -- -- 40
2019-08-16 11:00:00 24 9 Oeste 17 Oeste 0 -- -- 47
2019-08-16 10:00:00 21.6 10 Sudoeste 16 Sudoeste 0 -- -- 53
2019-08-16 09:00:00 19.5 11 Sudoeste 18 Sudoeste 0 -- -- 57
2019-08-16 08:00:00 18.8 13 Sudoeste 19 Sudoeste 0 -- -- 56
2019-08-16 07:00:00 17.4 15 Sur 21 Sur 0 -- -- 59
2019-08-16 06:00:00 15.2 5 Sudeste 6 Sudeste 0 -- -- 63
2019-08-16 05:00:00 16.9 5 Sudoeste 13 Sudoeste 0 -- -- 62
2019-08-16 04:00:00 16.9 8 Sudoeste 16 Sudeste 0 -- -- 61
2019-08-16 03:00:00 19.8 14 Sudeste 19 Sudeste 0 -- -- 53
2019-08-16 02:00:00 20.6 15 Sudeste 25 Este 0 -- -- 51
2019-08-16 01:00:00 22.3 20 Este 27 Este 0 -- -- 48
2019-08-16 00:00:00 22.7 15 Este 23 Nordeste 0 -- -- 47
2019-08-15 23:00:00 23.9 15 Nordeste 20 Nordeste 0 -- -- 45
2019-08-15 22:00:00 26.2 12 Norte 23 Norte 0 -- -- 37
2019-08-15 21:00:00 28.3 13 Noroeste 20 Oeste 0 -- -- 32
2019-08-15 20:00:00 30.5 13 Oeste 22 Oeste 0 -- -- 30
2019-08-15 19:00:00 31.4 9 Oeste 26 Oeste 0 -- -- 27
2019-08-15 18:00:00 31 15 Oeste 27 Noroeste 0 -- -- 28
2019-08-15 17:00:00 31.2 13 Oeste 23 Oeste 0 -- -- 28
2019-08-15 16:00:00 30.5 7 Sudoeste 22 Noroeste 0 -- -- 29
2019-08-15 15:00:00 29.9 14 Noroeste 25 Noroeste 0 -- -- 30
2019-08-15 14:00:00 28.6 12 Norte 20 Norte 0 -- -- 31
2019-08-15 13:00:00 27.2 8 Norte 16 Norte 0 -- -- 34
2019-08-15 12:00:00 24.8 5 Sudoeste 13 Oeste 0 -- -- 45
2019-08-15 11:00:00 21.8 8 Oeste 15 Oeste 0 -- -- 53
2019-08-15 10:00:00 19.2 6 Oeste 14 Oeste 0 -- -- 61
2019-08-15 09:00:00 17.4 9 Sudoeste 14 Sudoeste 0 -- -- 68
2019-08-15 08:00:00 16.6 10 Sur 15 Sudoeste 0 -- -- 73
2019-08-15 07:00:00 16.8 8 Sudoeste 18 Oeste 0 -- -- 71
2019-08-15 06:00:00 17.5 13 Sudoeste 20 Sudoeste 0 -- -- 69
2019-08-15 05:00:00 18.2 17 Sudoeste 24 Sur 0 -- -- 65
2019-08-15 04:00:00 19.6 17 Sudoeste 23 Sudoeste 0 -- -- 55
2019-08-15 03:00:00 20.9 7 Sudoeste 13 Sudoeste 0 -- -- 48
2019-08-15 02:00:00 22.2 12 Sudoeste 32 Oeste 0 -- -- 44
2019-08-15 01:00:00 20.7 15 Sudeste 20 Sudeste 0 -- -- 37
2019-08-15 00:00:00 21.8 4 Sudeste 6 Sudeste 0 -- -- 37
2019-08-14 23:00:00 22.6 4 Sudeste 5 Sudeste 0 -- -- 34
2019-08-14 22:00:00 25.7 4 Noroeste 10 Oeste 0 -- -- 31
2019-08-14 21:00:00 27.7 12 Noroeste 23 Oeste 0 -- -- 27
2019-08-14 20:00:00 29.7 12 Oeste 23 Oeste 0 -- -- 24
2019-08-14 19:00:00 30.2 9 Oeste 28 Oeste 0 -- -- 23
2019-08-14 18:00:00 29.7 13 Oeste 26 Oeste 0 -- -- 23
2019-08-14 17:00:00 29.7 13 Oeste 26 Noroeste 0 -- -- 23
2019-08-14 16:00:00 29.5 10 Oeste 24 Oeste 0 -- -- 22
2019-08-14 15:00:00 28.4 8 Noroeste 28 Oeste 0 -- -- 23
2019-08-14 14:00:00 27.7 7 Sudoeste 21 Sudoeste 0 -- -- 23
2019-08-14 13:00:00 26 10 Sudoeste 23 Sudoeste 0 -- -- 24
2019-08-14 12:00:00 24.7 10 Sudoeste 18 Oeste 0 -- -- 26
2019-08-14 11:00:00 21.9 6 Oeste 10 Oeste 0 -- -- 29
2019-08-14 10:00:00 18.8 3 Noroeste 7 Noroeste 0 -- -- 32
2019-08-14 09:00:00 16.8 6 Este 13 Sudeste 0 -- -- 36
2019-08-14 08:00:00 11.3 9 Sudeste 18 Noroeste 0 -- -- 46
2019-08-14 07:00:00 12.3 6 Sudoeste 21 Sudeste 0 -- -- 43
2019-08-14 06:00:00 13.5 18 Sudeste 22 Sudeste 0 -- -- 41
2019-08-14 05:00:00 14.1 17 Sudeste 22 Sudeste 0 -- -- 40
2019-08-14 04:00:00 14 17 Sudeste 23 Sudeste 0 -- -- 40
2019-08-14 03:00:00 14.9 16 Sudeste 20 Sudeste 0 -- -- 39
2019-08-14 02:00:00 15.9 15 Sudeste 17 Sudeste 0 -- -- 34
2019-08-14 01:00:00 16.6 8 Sudeste 12 Sudeste 0 -- -- 32
2019-08-14 00:00:00 18.6 8 Nordeste 11 Nordeste 0 -- -- 29
2019-08-13 23:00:00 19.4 7 Nordeste 11 Norte 0 -- -- 32
2019-08-13 22:00:00 21.3 7 Norte 14 Noroeste 0 -- -- 29
2019-08-13 21:00:00 23.8 13 Noroeste 21 Noroeste 0 -- -- 25
2019-08-13 20:00:00 25.7 12 Noroeste 22 Noroeste 0 -- -- 24
2019-08-13 19:00:00 26.1 14 Noroeste 31 Oeste 0 -- -- 23
2019-08-13 18:00:00 26.4 19 Oeste 28 Oeste 0 -- -- 24
2019-08-13 17:00:00 26.1 20 Noroeste 36 Noroeste 0 -- -- 25
2019-08-13 16:00:00 25.5 7 Nordeste 18 Noroeste 0 -- -- 25
2019-08-13 15:00:00 24.4 8 Sudoeste 25 Sudeste 0 -- -- 27
2019-08-13 14:00:00 23.1 3 Sudoeste 21 Norte 0 -- -- 30
2019-08-13 13:00:00 21.7 7 Noroeste 21 Norte 0 -- -- 33
2019-08-13 12:00:00 19.8 7 Noroeste 14 Norte 0 -- -- 41
2019-08-13 11:00:00 16.8 6 Norte 13 Nordeste 0 -- -- 53
2019-08-13 10:00:00 14.1 4 Norte 9 Norte 0 -- -- 62
2019-08-13 09:00:00 12 3 Nordeste 8 Nordeste 0 -- -- 71
2019-08-13 08:00:00 9.3 0 Calma 5 Nordeste 0 -- -- 79
2019-08-13 07:00:00 9.3 4 Este 9 Nordeste 0 -- -- 79
2019-08-13 06:00:00 8.9 3 Este 5 Norte 0 -- -- 81
2019-08-13 05:00:00 9.3 4 Oeste 13 Nordeste 0 -- -- 77
2019-08-13 04:00:00 10.6 9 Norte 14 Nordeste 0 -- -- 73
2019-08-13 03:00:00 11.7 8 Nordeste 21 Norte 0 -- -- 69
2019-08-13 02:00:00 13.2 14 Nordeste 23 Nordeste 0 -- -- 65
2019-08-13 01:00:00 14.7 14 Norte 22 Nordeste 0 -- -- 57
2019-08-13 00:00:00 16.2 13 Nordeste 31 Nordeste 0 -- -- 49
2019-08-12 23:00:00 17.6 19 Nordeste 27 Nordeste 0 -- -- 44
2019-08-12 22:00:00 18.2 14 Nordeste 24 Nordeste 0 -- -- 39
2019-08-12 21:00:00 19.6 13 Nordeste 28 Norte 0 -- -- 33
2019-08-12 20:00:00 21.7 14 Norte 29 Norte 0 -- -- 29
2019-08-12 19:00:00 22.9 13 Norte 34 Norte 0 -- -- 28
2019-08-12 18:00:00 22.4 13 Norte 28 Nordeste 0 -- -- 28
2019-08-12 17:00:00 22.5 17 Norte 30 Norte 0 -- -- 28
2019-08-12 16:00:00 22 14 Nordeste 28 Noroeste 0 -- -- 31
2019-08-12 15:00:00 21.3 12 Nordeste 30 Norte 0 -- -- 34
2019-08-12 14:00:00 19.9 13 Noroeste 30 Noroeste 0 -- -- 37
2019-08-12 13:00:00 18.5 12 Norte 27 Norte 0 -- -- 43
2019-08-12 12:00:00 17.2 9 Norte 21 Norte 0 -- -- 47
2019-08-12 11:00:00 15.1 12 Norte 20 Nordeste 0 -- -- 56
2019-08-12 10:00:00 13.2 8 Norte 13 Norte 0 -- -- 65
2019-08-12 09:00:00 9.6 5 Oeste 9 Oeste 0 -- -- 85
2019-08-12 08:00:00 9.2 0 Calma 5 Noroeste 0 -- -- 85
2019-08-12 07:00:00 8.6 2 Noroeste 10 Oeste 0 -- -- 85
2019-08-12 06:00:00 8.7 5 Oeste 9 Oeste 0 -- -- 85
2019-08-12 05:00:00 10.2 3 Oeste 5 Oeste 0 -- -- 80
2019-08-12 04:00:00 11.3 0 Calma 4 Norte 0 -- -- 72
2019-08-12 03:00:00 11.3 0 Calma 6 Norte 0 -- -- 69
2019-08-12 02:00:00 12.2 5 Oeste 15 Oeste 0 -- -- 63
2019-08-12 01:00:00 13.1 14 Oeste 23 Noroeste 0 -- -- 59
2019-08-12 00:00:00 15.5 18 Noroeste 28 Noroeste 0 -- -- 51
2019-08-11 23:00:00 16.6 14 Oeste 23 Oeste 0 -- -- 42
2019-08-11 22:00:00 17.7 13 Oeste 23 Oeste 0 -- -- 39
2019-08-11 21:00:00 20.6 19 Oeste 35 Noroeste 0 -- -- 32
2019-08-11 20:00:00 22.1 18 Oeste 36 Oeste 0 -- -- 32
2019-08-11 19:00:00 22.7 24 Oeste 37 Oeste 0 -- -- 31
2019-08-11 18:00:00 23.2 24 Oeste 41 Oeste 0 -- -- 34
2019-08-11 17:00:00 22.8 20 Oeste 39 Oeste 0 -- -- 36
2019-08-11 16:00:00 22.1 20 Oeste 39 Oeste 0 -- -- 42
2019-08-11 15:00:00 21.5 23 Oeste 39 Oeste 0 -- -- 49
2019-08-11 14:00:00 21.5 25 Oeste 37 Oeste 0 -- -- 51
2019-08-11 13:00:00 20.4 17 Oeste 31 Oeste 0 -- -- 58
2019-08-11 12:00:00 20.2 14 Oeste 27 Oeste 0 -- -- 58
2019-08-11 11:00:00 19 7 Oeste 17 Oeste 0 -- -- 60
2019-08-11 10:00:00 18.6 4 Norte 9 Nordeste 0 -- -- 62
2019-08-11 09:00:00 17 8 Este 14 Este 0 -- -- 73
2019-08-11 08:00:00 13.6 0 Calma 6 Sudeste 0 -- -- 86
2019-08-11 07:00:00 13.7 6 Este 21 Este 0 -- -- 86
2019-08-11 06:00:00 14.9 11 Este 15 Este 0 -- -- 85
2019-08-11 05:00:00 15.7 10 Noroeste 22 Oeste 0 -- -- 78
2019-08-11 04:00:00 17.1 13 Sudoeste 19 Sudoeste 0 -- -- 66
2019-08-11 03:00:00 16.9 9 Sudoeste 15 Oeste 0.2 -- -- 65
2019-08-11 02:00:00 17.1 7 Oeste 17 Oeste 0.4 -- -- 75
2019-08-11 01:00:00 17.8 5 Oeste 18 Oeste 0.6 -- -- 62
2019-08-11 00:00:00 21.1 11 Noroeste 21 Noroeste 0 -- -- 45
2019-08-10 23:00:00 22.7 14 Noroeste 20 Noroeste 0 -- -- 39
2019-08-10 22:00:00 23.5 14 Oeste 25 Noroeste 0 -- -- 37
2019-08-10 21:00:00 25.2 14 Oeste 24 Oeste 0 -- -- 32
2019-08-10 20:00:00 26.4 17 Oeste 29 Oeste 0 -- -- 29
2019-08-10 19:00:00 27.3 18 Oeste 27 Oeste 0 -- -- 27
2019-08-10 18:00:00 27.5 14 Oeste 30 Noroeste 0 -- -- 29
2019-08-10 17:00:00 27.1 11 Noroeste 26 Oeste 0 -- -- 25
2019-08-10 16:00:00 26.3 10 Oeste 23 Oeste 0 -- -- 34
2019-08-10 15:00:00 24.1 6 Sudoeste 17 Oeste 0 -- -- 35
2019-08-10 14:00:00 22.8 7 Oeste 14 Oeste 0 -- -- 45
2019-08-10 13:00:00 20.6 4 Norte 13 Norte 0 -- -- 53
2019-08-10 12:00:00 18.9 4 Oeste 13 Sudoeste 0 -- -- 60
2019-08-10 11:00:00 17.2 6 Oeste 13 Oeste 0 -- -- 69
2019-08-10 10:00:00 15.3 8 Oeste 14 Sudoeste 0 -- -- 77
2019-08-10 09:00:00 14.5 10 Sudoeste 14 Sudoeste 0 -- -- 80
2019-08-10 08:00:00 11.4 6 Sudeste 14 Sudeste 0 -- -- 93
2019-08-10 07:00:00 11.6 10 Sudeste 14 Sudoeste 0 -- -- 89
2019-08-10 06:00:00 12.9 13 Sudoeste 15 Sudoeste 0 -- -- 87
2019-08-10 05:00:00 13.5 10 Sudoeste 16 Sudoeste 0 -- -- 86
2019-08-10 04:00:00 13.9 11 Sudoeste 16 Sudoeste 0 -- -- 87
2019-08-10 03:00:00 14.5 12 Sudoeste 17 Sudoeste 0 -- -- 87
2019-08-10 02:00:00 16 13 Sudoeste 18 Sudoeste 0 -- -- 80
2019-08-10 01:00:00 17.1 16 Sur 21 Sudoeste 0 -- -- 78
2019-08-10 00:00:00 17.5 14 Sur 22 Sur 0 -- -- 80
2019-08-09 23:00:00 16.4 14 Sur 18 Sudeste 0 -- -- 91
2019-08-09 22:00:00 16.7 14 Sudeste 29 Sur 0 -- -- 89
2019-08-09 21:00:00 16.8 22 Sudeste 29 Sudeste 0.2 -- -- 90
2019-08-09 20:00:00 16 14 Sudoeste 56 Oeste 0.8 -- -- 91
2019-08-09 19:00:00 19.1 39 Oeste 65 Oeste 0 -- -- 68
2019-08-09 18:00:00 23.2 49 Oeste 61 Oeste 0 -- -- 50
2019-08-09 17:00:00 24.5 39 Oeste 53 Oeste 0 -- -- 61
2019-08-09 16:00:00 25.7 39 Oeste 63 Oeste 0 -- -- 57
2019-08-09 15:00:00 26.2 35 Oeste 50 Oeste 0 -- -- 56
2019-08-09 14:00:00 25 33 Oeste 53 Oeste 0 -- -- 59
2019-08-09 13:00:00 25.9 39 Oeste 58 Oeste 0 -- -- 54
2019-08-09 12:00:00 26.3 42 Sudoeste 59 Oeste 0 -- -- 53
2019-08-09 11:00:00 25.2 35 Sudoeste 51 Sudoeste 0 -- -- 56
2019-08-09 10:00:00 23.7 30 Sudoeste 39 Sudoeste 0 -- -- 60
2019-08-09 09:00:00 21.5 15 Sudoeste 22 Sudoeste 0 -- -- 59
2019-08-09 08:00:00 17.7 8 Sudeste 12 Sudeste 0 -- -- 71
2019-08-09 07:00:00 16.9 9 Sudeste 13 Noroeste 0 -- -- 75
2019-08-09 06:00:00 19.2 8 Sudoeste 13 Sudoeste 0 -- -- 71
2019-08-09 05:00:00 19.8 12 Sudoeste 14 Sudoeste 0 -- -- 70
2019-08-09 04:00:00 20.4 9 Sudoeste 12 Sudoeste 0 -- -- 69
2019-08-09 03:00:00 21.2 9 Sudoeste 14 Sudoeste 0 -- -- 66
2019-08-09 02:00:00 21.8 11 Sudoeste 23 Sudoeste 0 -- -- 65
2019-08-09 01:00:00 23.3 18 Sudoeste 28 Sudoeste 0 -- -- 60
2019-08-09 00:00:00 24.1 17 Sudoeste 29 Sudoeste 0 -- -- 54
2019-08-08 23:00:00 24.8 14 Sudoeste 35 Sudoeste 0 -- -- 48
2019-08-08 22:00:00 26.3 22 Oeste 38 Oeste 0 -- -- 44
2019-08-08 21:00:00 28 31 Oeste 48 Oeste 0 -- -- 39
2019-08-08 20:00:00 29.4 36 Oeste 57 Oeste 0 -- -- 38
2019-08-08 19:00:00 30.9 38 Oeste 47 Oeste 0 -- -- 35
2019-08-08 18:00:00 31.4 19 Sudoeste 36 Sudoeste 0 -- -- 34
2019-08-08 17:00:00 30.5 18 Sudoeste 29 Oeste 0 -- -- 38
2019-08-08 16:00:00 30.3 18 Sudoeste 31 Sudoeste 0 -- -- 38
2019-08-08 15:00:00 28.8 18 Sudoeste 29 Oeste 0 -- -- 42
2019-08-08 14:00:00 28.9 15 Sur 33 Sudoeste 0 -- -- 42
2019-08-08 13:00:00 27.2 15 Sudoeste 33 Sudoeste 0 -- -- 47
2019-08-08 12:00:00 25.8 17 Oeste 29 Sudoeste 0 -- -- 51
2019-08-08 11:00:00 24.1 14 Sudoeste 27 Sudoeste 0 -- -- 55
2019-08-08 10:00:00 22.6 15 Sudoeste 23 Sudoeste 0 -- -- 56
2019-08-08 09:00:00 21 9 Sudeste 14 Sur 0 -- -- 55
2019-08-08 08:00:00 18.6 8 Sur 11 Sur 0 -- -- 64
2019-08-08 07:00:00 18.7 6 Sur 14 Sudoeste 0 -- -- 63
2019-08-08 06:00:00 19.4 11 Sudoeste 20 Sudoeste 0 -- -- 61
2019-08-08 05:00:00 19.5 13 Sudoeste 21 Sudoeste 0 -- -- 60
2019-08-08 04:00:00 19.5 12 Sudoeste 22 Sur 0 -- -- 59
2019-08-08 03:00:00 19.5 13 Sur 22 Sur 0 -- -- 59
2019-08-08 02:00:00 19.4 8 Sur 12 Sudoeste 0 -- -- 57
2019-08-08 01:00:00 19.8 10 Sudoeste 14 Sudoeste 0 -- -- 55
2019-08-08 00:00:00 20.3 8 Sudoeste 15 Sur 0 -- -- 54
2019-08-07 23:00:00 21.4 13 Sudoeste 17 Sudoeste 0 -- -- 51
2019-08-07 22:00:00 22.1 8 Sudoeste 18 Oeste 0 -- -- 49
2019-08-07 21:00:00 23.3 17 Sudoeste 30 Sudoeste 0 -- -- 43
2019-08-07 20:00:00 24.1 22 Sudoeste 30 Oeste 0 -- -- 42
2019-08-07 19:00:00 23.9 15 Sudoeste 27 Sudeste 0 -- -- 45
2019-08-07 18:00:00 23.2 19 Sur 26 Sudeste 0 -- -- 51
2019-08-07 17:00:00 23.2 16 Sur 32 Sur 0 -- -- 53
2019-08-07 16:00:00 24.2 24 Sur 36 Sur 0 -- -- 45
2019-08-07 15:00:00 24.7 19 Sudoeste 29 Sudoeste 0 -- -- 47
2019-08-07 14:00:00 24.8 16 Sudoeste 26 Sudoeste 0 -- -- 48
2019-08-07 13:00:00 24.4 9 Sudoeste 24 Sudeste 0 -- -- 51
2019-08-07 12:00:00 23.6 9 Oeste 21 Sur 0 -- -- 53
2019-08-07 11:00:00 22.7 10 Oeste 16 Oeste 0 -- -- 54
2019-08-07 10:00:00 21.1 8 Oeste 18 Sudoeste 0 -- -- 59
2019-08-07 09:00:00 19.8 9 Sudoeste 15 Sudoeste 0 -- -- 62
2019-08-07 08:00:00 19.2 6 Sudoeste 11 Oeste 0 -- -- 64
2019-08-07 07:00:00 19.1 7 Oeste 15 Sudoeste 0 -- -- 62
2019-08-07 06:00:00 20 10 Sudoeste 13 Sudoeste 0 -- -- 58
2019-08-07 05:00:00 21 9 Sur 11 Sur 0 -- -- 55
2019-08-07 04:00:00 21.1 5 Oeste 9 Oeste 0 -- -- 53
2019-08-07 03:00:00 21.5 6 Sudoeste 14 Sudoeste 0 -- -- 47
2019-08-07 02:00:00 22.4 10 Sudoeste 16 Sudoeste 0 -- -- 44
2019-08-07 01:00:00 23.4 3 Oeste 8 Oeste 0 -- -- 41
2019-08-07 00:00:00 23.8 6 Noroeste 24 Oeste 0 -- -- 40
2019-08-06 23:00:00 25.2 24 Noroeste 32 Oeste 0 -- -- 39
2019-08-06 22:00:00 26.8 15 Noroeste 25 Noroeste 0 -- -- 35
2019-08-06 21:00:00 28.8 17 Oeste 23 Oeste 0 -- -- 34
2019-08-06 20:00:00 30 16 Oeste 30 Oeste 0 -- -- 31
2019-08-06 19:00:00 30.8 19 Oeste 34 Oeste 0 -- -- 28
2019-08-06 18:00:00 31.7 25 Oeste 35 Oeste 0 -- -- 27
2019-08-06 17:00:00 31.7 17 Oeste 42 Sudoeste 0 -- -- 27
2019-08-06 16:00:00 31.4 18 Oeste 34 Oeste 0 -- -- 26
2019-08-06 15:00:00 31 18 Oeste 36 Oeste 0 -- -- 28
2019-08-06 14:00:00 30.2 9 Sudoeste 26 Sudeste 0 -- -- 29
2019-08-06 13:00:00 28.3 6 Oeste 15 Oeste 0 -- -- 36
2019-08-06 12:00:00 26.6 7 Noroeste 15 Noroeste 0 -- -- 42
2019-08-06 11:00:00 24 10 Oeste 17 Sudoeste 0 -- -- 49
2019-08-06 10:00:00 22.1 9 Sudoeste 23 Sudeste 0 -- -- 54
2019-08-06 09:00:00 19.9 13 Sur 19 Sudoeste 0 -- -- 58
2019-08-06 08:00:00 18.5 14 Sudoeste 19 Sudoeste 0 -- -- 57
2019-08-06 07:00:00 17.9 14 Sudoeste 23 Sudoeste 0 -- -- 54
2019-08-06 06:00:00 19.1 18 Sudoeste 24 Sudoeste 0 -- -- 48
2019-08-06 05:00:00 20.9 19 Sudoeste 26 Sudoeste 0 -- -- 44
2019-08-06 04:00:00 21.8 19 Sur 29 Sur 0 -- -- 41
2019-08-06 03:00:00 21.9 13 Sur 18 Sudoeste 0 -- -- 40
2019-08-06 02:00:00 23.5 10 Sudoeste 14 Oeste 0 -- -- 39
2019-08-06 01:00:00 24 9 Sudoeste 17 Oeste 0 -- -- 38
2019-08-06 00:00:00 25.3 9 Sudoeste 15 Sudoeste 0 -- -- 35
2019-08-05 23:00:00 26.5 6 Oeste 11 Oeste 0 -- -- 31
2019-08-05 22:00:00 26.9 9 Oeste 19 Oeste 0 -- -- 27
2019-08-05 21:00:00 30.1 19 Oeste 30 Oeste 0 -- -- 23
2019-08-05 20:00:00 31.8 21 Oeste 36 Oeste 0 -- -- 21
2019-08-05 19:00:00 32.5 23 Oeste 32 Oeste 0 -- -- 22
2019-08-05 18:00:00 32.8 22 Oeste 37 Oeste 0 -- -- 22
2019-08-05 17:00:00 33 24 Noroeste 36 Noroeste 0 -- -- 22
2019-08-05 16:00:00 32.8 15 Noroeste 33 Oeste 0 -- -- 21
2019-08-05 15:00:00 31.6 8 Oeste 28 Oeste 0 -- -- 22
2019-08-05 14:00:00 30.9 11 Oeste 23 Sudoeste 0 -- -- 23
2019-08-05 13:00:00 29.4 11 Sudoeste 23 Sudoeste 0 -- -- 28
2019-08-05 12:00:00 26.6 4 Noroeste 12 Oeste 0 -- -- 40
2019-08-05 11:00:00 23.8 5 Noroeste 13 Sudoeste 0 -- -- 48
2019-08-05 10:00:00 21.1 9 Sudoeste 18 Oeste 0 -- -- 57
2019-08-05 09:00:00 19 12 Sudoeste 17 Sudoeste 0 -- -- 63
2019-08-05 08:00:00 17.3 8 Sur 14 Sudoeste 0 -- -- 63
2019-08-05 07:00:00 17.8 11 Sudoeste 20 Sudoeste 0 -- -- 61
2019-08-05 06:00:00 18 17 Sudoeste 21 Sudoeste 0 -- -- 54
2019-08-05 05:00:00 19.4 17 Sudoeste 22 Sudoeste 0 -- -- 47
2019-08-05 04:00:00 20.8 15 Sudoeste 21 Sudoeste 0 -- -- 43
2019-08-05 03:00:00 22.7 17 Sudoeste 20 Sudoeste 0 -- -- 37
2019-08-05 02:00:00 21.8 4 Sur 13 Oeste 0 -- -- 38
2019-08-05 01:00:00 24.4 11 Sudoeste 15 Sudoeste 0 -- -- 34
2019-08-05 00:00:00 25 9 Oeste 13 Oeste 0 -- -- 34
2019-08-04 23:00:00 26.3 7 Oeste 12 Noroeste 0 -- -- 32
2019-08-04 22:00:00 27.9 4 Oeste 22 Oeste 0 -- -- 29
2019-08-04 21:00:00 30.3 16 Oeste 28 Oeste 0 -- -- 26
2019-08-04 20:00:00 31.7 21 Noroeste 33 Oeste 0 -- -- 24
2019-08-04 19:00:00 32.2 24 Noroeste 37 Noroeste 0 -- -- 23
2019-08-04 18:00:00 32.7 18 Oeste 38 Oeste 0 -- -- 24
2019-08-04 17:00:00 32.9 22 Oeste 38 Oeste 0 -- -- 23
2019-08-04 16:00:00 32.7 17 Oeste 33 Oeste 0 -- -- 22
2019-08-04 15:00:00 31.3 16 Oeste 28 Oeste 0 -- -- 22
2019-08-04 14:00:00 30.2 11 Oeste 21 Oeste 0 -- -- 31
2019-08-04 13:00:00 28.5 8 Oeste 16 Oeste 0 -- -- 38
2019-08-04 12:00:00 26.3 7 Noroeste 16 Oeste 0 -- -- 45
2019-08-04 11:00:00 24.2 9 Sudoeste 17 Oeste 0 -- -- 51
2019-08-04 10:00:00 21.9 10 Sudoeste 19 Sudoeste 0 -- -- 57
2019-08-04 09:00:00 20 14 Sudoeste 19 Sudoeste 0 -- -- 60
2019-08-04 08:00:00 19.2 11 Sudoeste 17 Sudoeste 0 -- -- 62
2019-08-04 07:00:00 18.5 13 Sur 22 Sudoeste 0 -- -- 62
2019-08-04 06:00:00 19 19 Sudoeste 23 Sudoeste 0 -- -- 57
2019-08-04 05:00:00 19.6 18 Sudoeste 23 Sudoeste 0 -- -- 51
2019-08-04 04:00:00 20.8 18 Sudoeste 26 Sudoeste 0 -- -- 45
2019-08-04 03:00:00 21.6 19 Sudoeste 25 Sur 0 -- -- 42
2019-08-04 02:00:00 22.8 19 Sudoeste 23 Sudoeste 0 -- -- 38
2019-08-04 01:00:00 24.9 10 Oeste 19 Sudoeste 0 -- -- 34
2019-08-04 00:00:00 25.9 12 Sudoeste 19 Sudoeste 0 -- -- 31
2019-08-03 23:00:00 27.4 12 Sudoeste 15 Sudoeste 0 -- -- 25
2019-08-03 22:00:00 28 10 Oeste 22 Oeste 0 -- -- 21
2019-08-03 21:00:00 30.4 14 Oeste 28 Oeste 0 -- -- 22
2019-08-03 20:00:00 32.3 20 Oeste 33 Oeste 0 -- -- 21
2019-08-03 19:00:00 32.8 19 Oeste 34 Oeste 0 -- -- 20
2019-08-03 18:00:00 33.5 11 Oeste 31 Oeste 0 -- -- 18
2019-08-03 17:00:00 33.5 15 Oeste 35 Oeste 0 -- -- 18
2019-08-03 16:00:00 33.5 17 Oeste 33 Oeste 0 -- -- 18
2019-08-03 15:00:00 33 11 Sudoeste 27 Noroeste 0 -- -- 19
2019-08-03 14:00:00 31.4 12 Oeste 33 Oeste 0 -- -- 20
2019-08-03 13:00:00 30.6 19 Oeste 31 Oeste 0 -- -- 21
2019-08-03 12:00:00 29.2 7 Oeste 18 Oeste 0 -- -- 26
2019-08-03 11:00:00 26.9 6 Oeste 15 Sudoeste 0 -- -- 30
2019-08-03 10:00:00 23.7 9 Sudoeste 20 Sudoeste 0 -- -- 34
2019-08-03 09:00:00 21.5 16 Sudoeste 25 Sudoeste 0 -- -- 37
2019-08-03 08:00:00 19.2 18 Sudoeste 24 Sudoeste 0 -- -- 40
2019-08-03 07:00:00 16.8 6 Sudeste 16 Sudeste 0 -- -- 43
2019-08-03 06:00:00 17.9 4 Sudeste 14 Sudoeste 0 -- -- 41
2019-08-03 05:00:00 16.8 4 Sudeste 7 Este 0 -- -- 45
2019-08-03 04:00:00 19.3 4 Oeste 11 Nordeste 0 -- -- 44
2019-08-03 03:00:00 20.1 4 Oeste 21 Este 0 -- -- 43
2019-08-03 02:00:00 22.9 18 Este 24 Este 0 -- -- 38
2019-08-03 01:00:00 23.2 7 Nordeste 10 Nordeste 0 -- -- 34
2019-08-03 00:00:00 24.7 8 Noroeste 12 Oeste 0 -- -- 31
2019-08-02 23:00:00 25.7 3 Nordeste 13 Noroeste 0 -- -- 28
2019-08-02 22:00:00 27.1 10 Noroeste 19 Noroeste 0 -- -- 26
2019-08-02 21:00:00 30.3 16 Noroeste 24 Noroeste 0 -- -- 22
2019-08-02 20:00:00 32.1 16 Noroeste 30 Oeste 0 -- -- 19
2019-08-02 19:00:00 32.9 15 Oeste 32 Oeste 0 -- -- 19
2019-08-02 18:00:00 33.5 5 Noroeste 27 Oeste 0 -- -- 19
2019-08-02 17:00:00 33.1 10 Noroeste 32 Sur 0 -- -- 20
2019-08-02 16:00:00 32.4 12 Sur 25 Oeste 0 -- -- 21
2019-08-02 15:00:00 31.2 11 Oeste 22 Noroeste 0 -- -- 19
2019-08-02 14:00:00 30.1 11 Noroeste 22 Oeste 0 -- -- 24
2019-08-02 13:00:00 29.2 6 Sur 12 Este 0 -- -- 32
2019-08-02 12:00:00 25.7 4 Norte 10 Noroeste 0 -- -- 42
2019-08-02 11:00:00 22.3 5 Oeste 10 Sudoeste 0 -- -- 50
2019-08-02 10:00:00 20.1 7 Sudoeste 12 Sudoeste 0 -- -- 51
2019-08-02 09:00:00 18.1 4 Sur 11 Sudoeste 0 -- -- 52
2019-08-02 08:00:00 13.6 3 Sudeste 8 Sudeste 0 -- -- 84
2019-08-02 07:00:00 13.1 2 Este 6 Sudeste 0 -- -- 85
2019-08-02 06:00:00 14.7 2 Sudoeste 5 Sudoeste 0 -- -- 83
2019-08-02 05:00:00 15.6 2 Oeste 7 Oeste 0 -- -- 83
2019-08-02 04:00:00 16.7 0 Calma 7 Noroeste 0 -- -- 77
2019-08-02 03:00:00 17.1 4 Noroeste 9 Oeste 0 -- -- 73
2019-08-02 02:00:00 19.6 6 Este 13 Nordeste 0 -- -- 68
2019-08-02 01:00:00 20.7 9 Nordeste 19 Nordeste 0 -- -- 64
2019-08-02 00:00:00 22 14 Nordeste 18 Nordeste 0 -- -- 47
2019-08-01 23:00:00 24.5 6 Norte 13 Norte 0 -- -- 30
2019-08-01 22:00:00 25.8 9 Norte 18 Noroeste 0 -- -- 29
2019-08-01 21:00:00 28.4 12 Noroeste 28 Oeste 0 -- -- 27
2019-08-01 20:00:00 29.3 20 Oeste 38 Noroeste 0 -- -- 25
2019-08-01 19:00:00 30 18 Oeste 36 Oeste 0 -- -- 25
2019-08-01 18:00:00 30.1 24 Oeste 36 Noroeste 0 -- -- 24
2019-08-01 17:00:00 29.8 20 Oeste 39 Sudoeste 0 -- -- 24
2019-08-01 16:00:00 29.6 23 Oeste 43 Oeste 0 -- -- 24
2019-08-01 15:00:00 28.8 20 Oeste 33 Oeste 0 -- -- 26
2019-08-01 14:00:00 27.4 14 Oeste 28 Oeste 0 -- -- 34
2019-08-01 13:00:00 25.5 11 Oeste 24 Oeste 0 -- -- 41
2019-08-01 12:00:00 23.6 16 Oeste 25 Oeste 0 -- -- 45
2019-08-01 11:00:00 22 16 Oeste 22 Oeste 0 -- -- 50
2019-08-01 10:00:00 20.1 10 Sudoeste 17 Sudoeste 0 -- -- 56
2019-08-01 09:00:00 17 8 Sudoeste 12 Sudoeste 0 -- -- 64
2019-08-01 08:00:00 15.9 9 Sudoeste 14 Sudoeste 0 -- -- 65
2019-08-01 07:00:00 16.8 9 Sudoeste 11 Sudoeste 0 -- -- 59
2019-08-01 06:00:00 18 3 Sudoeste 12 Sudoeste 0 -- -- 55
2019-08-01 05:00:00 18.7 9 Sudoeste 21 Oeste 0 -- -- 54
2019-08-01 04:00:00 19.4 12 Sudeste 24 Sudeste 0 -- -- 56
2019-08-01 03:00:00 19.8 3 Sudeste 6 Sudoeste 0 -- -- 49
2019-08-01 02:00:00 20.4 0 Calma 7 Oeste 0 -- -- 47
2019-08-01 01:00:00 20.9 6 Sudoeste 13 Oeste 0 -- -- 47
2019-08-01 00:00:00 21.8 4 Sudoeste 12 Sudeste 0 -- -- 44
2019-07-31 23:00:00 22.2 10 Norte 29 Norte 0 -- -- 43
2019-07-31 22:00:00 24 18 Norte 31 Noroeste 0 -- -- 41
2019-07-31 21:00:00 26.2 23 Norte 40 Oeste 0 -- -- 36
2019-07-31 20:00:00 29.2 30 Oeste 44 Noroeste 0 -- -- 30
2019-07-31 19:00:00 31.6 21 Sur 56 Sur 0 -- -- 22
2019-07-31 18:00:00 31.9 21 Sur 40 Sur 0 -- -- 20
2019-07-31 17:00:00 31.7 22 Sudoeste 44 Sur 0 -- -- 22
2019-07-31 16:00:00 30.5 14 Sudeste 40 Sudeste 0 -- -- 30
2019-07-31 15:00:00 29.3 8 Este 22 Sur 0 -- -- 34
2019-07-31 14:00:00 27.7 6 Norte 17 Oeste 0 -- -- 37
2019-07-31 13:00:00 25 7 Norte 18 Noroeste 0 -- -- 42
2019-07-31 12:00:00 23.3 6 Noroeste 14 Noroeste 0 -- -- 44
2019-07-31 11:00:00 19.5 6 Noroeste 13 Norte 0 -- -- 47
2019-07-31 10:00:00 16.8 6 Norte 10 Nordeste 0 -- -- 50
2019-07-31 09:00:00 12.5 3 Norte 5 Norte 0 -- -- 67
2019-07-31 08:00:00 10.2 2 Norte 8 Este 0 -- -- 76
2019-07-31 07:00:00 10.7 5 Este 10 Este 0 -- -- 73
2019-07-31 06:00:00 10.6 6 Este 9 Nordeste 0 -- -- 75
2019-07-31 05:00:00 11.8 5 Nordeste 10 Este 0 -- -- 72
2019-07-31 04:00:00 12.3 3 Este 6 Nordeste 0 -- -- 69
2019-07-31 03:00:00 13.2 4 Nordeste 9 Norte 0 -- -- 64
2019-07-31 02:00:00 13.8 5 Nordeste 14 Norte 0 -- -- 63
2019-07-31 01:00:00 15.2 9 Nordeste 17 Nordeste 0 -- -- 55
2019-07-31 00:00:00 16.9 10 Nordeste 21 Nordeste 0 -- -- 43
2019-07-30 23:00:00 18.3 11 Nordeste 18 Norte 0 -- -- 37
2019-07-30 22:00:00 20.8 13 Norte 27 Norte 0 -- -- 33
2019-07-30 21:00:00 23.4 18 Norte 25 Norte 0 -- -- 30
2019-07-30 20:00:00 24.9 16 Norte 25 Norte 0 -- -- 29
2019-07-30 19:00:00 26.1 12 Noroeste 26 Norte 0 -- -- 27
2019-07-30 18:00:00 25.9 12 Oeste 21 Oeste 0 -- -- 25
2019-07-30 17:00:00 25.2 8 Este 19 Este 0 -- -- 26
2019-07-30 16:00:00 24 8 Noroeste 24 Nordeste 0 -- -- 29
2019-07-30 15:00:00 22.6 12 Noroeste 28 Noroeste 0 -- -- 31
2019-07-30 14:00:00 21.2 8 Sudoeste 21 Oeste 0 -- -- 38
2019-07-30 13:00:00 19.9 7 Oeste 15 Este 0 -- -- 42
2019-07-30 12:00:00 17.9 5 Noroeste 13 Noroeste 0 -- -- 47
2019-07-30 11:00:00 16.5 4 Sur 10 Sudeste 0 -- -- 54
2019-07-30 10:00:00 13.6 2 Noroeste 11 Oeste 0 -- -- 62
2019-07-30 09:00:00 11.8 5 Oeste 12 Sudoeste 0 -- -- 67
2019-07-30 08:00:00 10.1 8 Sudoeste 13 Sudoeste 0 -- -- 73
2019-07-30 07:00:00 10 9 Sudoeste 14 Sudoeste 0 -- -- 73
2019-07-30 06:00:00 11 11 Sudoeste 15 Sudoeste 0 -- -- 68
2019-07-30 05:00:00 11.9 8 Oeste 13 Oeste 0 -- -- 66
2019-07-30 04:00:00 12.2 6 Oeste 16 Oeste 0 -- -- 63
2019-07-30 03:00:00 13.8 6 Oeste 17 Noroeste 0 -- -- 57
2019-07-30 02:00:00 14.8 8 Oeste 13 Oeste 0 -- -- 51
2019-07-30 01:00:00 15.2 12 Oeste 25 Oeste 0 -- -- 48
2019-07-30 00:00:00 17.1 17 Oeste 22 Oeste 0 -- -- 42
2019-07-29 23:00:00 18.6 9 Oeste 17 Oeste 0 -- -- 39
2019-07-29 22:00:00 20.6 17 Oeste 39 Oeste 0 -- -- 35
2019-07-29 21:00:00 23.4 23 Oeste 35 Oeste 0 -- -- 32
2019-07-29 20:00:00 25.3 26 Oeste 47 Oeste 0 -- -- 25
2019-07-29 19:00:00 26 27 Oeste 44 Oeste 0 -- -- 29
2019-07-29 18:00:00 26.5 33 Oeste 47 Oeste 0 -- -- 25
2019-07-29 17:00:00 26.2 30 Oeste 45 Oeste 0 -- -- 33
2019-07-29 16:00:00 25.7 25 Oeste 50 Oeste 0 -- -- 39
2019-07-29 15:00:00 25.3 20 Oeste 37 Oeste 0 -- -- 40
2019-07-29 14:00:00 23.9 14 Oeste 32 Oeste 0 -- -- 41
2019-07-29 13:00:00 22.5 15 Oeste 27 Oeste 0 -- -- 47
2019-07-29 12:00:00 21.6 16 Oeste 29 Oeste 0 -- -- 41
2019-07-29 11:00:00 20 13 Oeste 21 Oeste 0 -- -- 40
2019-07-29 10:00:00 18.4 14 Oeste 21 Oeste 0 -- -- 48
2019-07-29 09:00:00 16.8 12 Sudoeste 17 Sudoeste 0 -- -- 59
2019-07-29 08:00:00 15.8 10 Sudoeste 18 Sudoeste 0 -- -- 65
2019-07-29 07:00:00 14.9 13 Sur 22 Sudoeste 0 -- -- 64
2019-07-29 06:00:00 15.4 18 Sudoeste 23 Sudoeste 0 -- -- 48
2019-07-29 05:00:00 16.3 15 Sudoeste 24 Sudoeste 0 -- -- 45
2019-07-29 04:00:00 17.3 17 Sudoeste 29 Sudoeste 0 -- -- 38
2019-07-29 03:00:00 16 10 Sudeste 17 Sudeste 0 -- -- 36
2019-07-29 02:00:00 17.1 15 Sudeste 17 Sudeste 0 -- -- 34
2019-07-29 01:00:00 17.6 12 Sudeste 18 Sudeste 0 -- -- 32
2019-07-29 00:00:00 18.7 5 Sudeste 9 Sudeste 0 -- -- 30
2019-07-28 23:00:00 19.9 3 Este 5 Este 0 -- -- 28
2019-07-28 22:00:00 23 0 Calma 10 Noroeste 0 -- -- 25
2019-07-28 21:00:00 25.4 6 Noroeste 18 Noroeste 0 -- -- 23
2019-07-28 20:00:00 26.6 13 Oeste 23 Oeste 0 -- -- 20
2019-07-28 19:00:00 26.8 10 Oeste 28 Sudoeste 0 -- -- 22
2019-07-28 18:00:00 26.5 14 Oeste 32 Sudoeste 0 -- -- 25
2019-07-28 17:00:00 25.9 15 Oeste 28 Oeste 0 -- -- 26
2019-07-28 16:00:00 25.2 18 Oeste 32 Oeste 0 -- -- 27
2019-07-28 15:00:00 24.5 17 Oeste 31 Oeste 0 -- -- 32
2019-07-28 14:00:00 23.7 13 Noroeste 28 Noroeste 0 -- -- 32
2019-07-28 13:00:00 22.2 6 Este 19 Este 0 -- -- 40
2019-07-28 12:00:00 20.5 5 Nordeste 13 Nordeste 0 -- -- 45
2019-07-28 11:00:00 18.2 8 Nordeste 17 Norte 0 -- -- 55
2019-07-28 10:00:00 15.8 8 Nordeste 13 Nordeste 0 -- -- 68
2019-07-28 09:00:00 12.5 3 Norte 5 Noroeste 0 -- -- 83
2019-07-28 08:00:00 10.6 0 Calma 6 Sur 0 -- -- 89
2019-07-28 07:00:00 9.2 3 Sudeste 5 Sudeste 0 -- -- 91
2019-07-28 06:00:00 9.5 2 Este 5 Sudoeste 0 -- -- 88
2019-07-28 05:00:00 9.9 2 Este 11 Norte 0 -- -- 88
2019-07-28 04:00:00 10.7 5 Norte 9 Norte 0 -- -- 86
2019-07-28 03:00:00 11 5 Norte 10 Nordeste 0 -- -- 83
2019-07-28 02:00:00 12.1 8 Nordeste 15 Nordeste 0 -- -- 80
2019-07-28 01:00:00 13.2 10 Nordeste 24 Nordeste 0 -- -- 76
2019-07-28 00:00:00 14.6 17 Nordeste 32 Nordeste 0 -- -- 72
2019-07-27 23:00:00 15.7 15 Nordeste 29 Norte 0 -- -- 72
2019-07-26 12:00:00 -- -- -- -- -- -- -- -- --
2019-07-26 11:00:00 19 12 Oeste 22 Oeste 0 -- -- 69
2019-07-26 10:00:00 18.2 10 Oeste 22 Oeste 0 -- -- 74
2019-07-26 09:00:00 17.8 15 Noroeste 22 Oeste 0 -- -- 80
2019-07-26 08:00:00 17.6 9 Noroeste 14 Oeste 0 -- -- 81
2019-07-26 07:00:00 17.1 9 Sudoeste 18 Sudoeste 0 -- -- 82
2019-07-26 06:00:00 18 13 Oeste 23 Oeste 0 -- -- 80
2019-07-26 05:00:00 18.7 14 Oeste 31 Oeste 0 -- -- 77
2019-07-26 04:00:00 20.1 17 Oeste 29 Oeste 0 -- -- 70
2019-07-26 03:00:00 20.9 23 Oeste 36 Oeste 0 -- -- 66
2019-07-26 02:00:00 22.6 14 Sudoeste 18 Sudoeste 0 -- -- 53
2019-07-26 01:00:00 22.9 7 Oeste 18 Oeste 0 -- -- 52
2019-07-26 00:00:00 23.7 14 Oeste 29 Oeste 0 -- -- 47